Ana Sayfa
METAR-TAF:

METAR-TAF

Havaalanları :

Rhino Camp, Namibya

Enlem: 20-01-28S, Boylam: 13-50-45E, yükseklik: 756 m

Güncel hava durumu gözlemi

Rapor saat 16:00 UTC de 7 saat ve 19 dakika önce yapıldı.
Rüzgar batıdan 4 kt
Sıcaklık 35°C
Nem 17%
Basınç 1014 hPa
Görüş mesafesi 10 km veya daha fazla
1500 m altında bulut yok ve kümülonimbus yok

METAR: FYRN 161600Z 27004KT CAVOK 35/06 Q1014

Saat: 01:19 (23:19 UTC)


TAF: eksik

4.000'den fazla havaalanı için hava durumu gözlemleri ve tahminleri (METAR ve TAF raporları).

Kullanılabilir istasyonlar harita üzerinde sarı ve kırmızı noktalarla gösterilir.

İstasyonun adını görmek için fareyi noktanın üzerinde gezdirin.

Sonrasında hava gözlem ve tahminlerini görmek için tıklayın.

Haritayı değiştirmek için: yaklaştırmak için siyah artı işaretli yeşil düğmeye ve uzaklaştırmak için de eksi işaretli düğmeye hızla tıklayın; bitişik haritalar için yeşil okları kullanın.


METAR-TAF: